sensor_id;sensor_type;location;lat;lon;timestamp;temperature;humidity
79694;DHT22;69165;52.714;13.200;2023-09-30T05:02:08;12.50;99.90
79694;DHT22;69165;52.714;13.200;2023-09-30T05:04:10;12.50;99.90
79694;DHT22;69165;52.714;13.200;2023-09-30T05:06:11;12.50;99.90
79694;DHT22;69165;52.714;13.200;2023-09-30T05:08:13;12.50;99.90
79694;DHT22;69165;52.714;13.200;2023-09-30T05:10:14;12.40;99.90
79694;DHT22;69165;52.714;13.200;2023-09-30T05:12:15;12.40;99.90
79694;DHT22;69165;52.714;13.200;2023-09-30T05:14:17;12.40;99.90
79694;DHT22;69165;52.714;13.200;2023-09-30T05:16:18;12.40;99.90
79694;DHT22;69165;52.714;13.200;2023-09-30T05:18:19;12.40;99.90
79694;DHT22;69165;52.714;13.200;2023-09-30T05:20:21;12.40;99.90
79694;DHT22;69165;52.714;13.200;2023-09-30T05:22:23;12.40;99.90
79694;DHT22;69165;52.714;13.200;2023-09-30T05:24:24;12.40;99.90
79694;DHT22;69165;52.714;13.200;2023-09-30T05:26:25;12.40;99.90
79694;DHT22;69165;52.714;13.200;2023-09-30T05:28:26;12.40;99.90
79694;DHT22;69165;52.714;13.200;2023-09-30T05:30:28;12.30;99.90
79694;DHT22;69165;52.714;13.200;2023-09-30T05:32:29;12.30;99.90
79694;DHT22;69165;52.714;13.200;2023-09-30T05:34:30;12.30;99.90
79694;DHT22;69165;52.714;13.200;2023-09-30T05:36:31;12.30;99.90
79694;DHT22;69165;52.714;13.200;2023-09-30T05:38:33;12.30;99.90
79694;DHT22;69165;52.714;13.200;2023-09-30T05:40:34;12.30;99.90
79694;DHT22;69165;52.714;13.200;2023-09-30T05:42:35;12.30;99.90
79694;DHT22;69165;52.714;13.200;2023-09-30T05:44:37;12.30;99.90
79694;DHT22;69165;52.714;13.200;2023-09-30T05:46:39;12.40;99.90
79694;DHT22;69165;52.714;13.200;2023-09-30T05:48:40;12.40;99.90
79694;DHT22;69165;52.714;13.200;2023-09-30T05:50:41;12.40;99.90
79694;DHT22;69165;52.714;13.200;2023-09-30T05:52:43;12.40;99.90
79694;DHT22;69165;52.714;13.200;2023-09-30T05:54:46;12.40;99.90
79694;DHT22;69165;52.714;13.200;2023-09-30T05:56:47;12.40;99.90
79694;DHT22;69165;52.714;13.200;2023-09-30T05:58:49;12.50;99.90
79694;DHT22;69165;52.714;13.200;2023-09-30T06:00:50;12.50;99.90
79694;DHT22;69165;52.714;13.200;2023-09-30T06:02:51;12.50;99.90
79694;DHT22;69165;52.714;13.200;2023-09-30T06:04:53;12.50;99.90
79694;DHT22;69165;52.714;13.200;2023-09-30T06:06:55;12.50;99.90
79694;DHT22;69165;52.714;13.200;2023-09-30T06:08:56;12.60;99.90
79694;DHT22;69165;52.714;13.200;2023-09-30T06:10:59;12.60;99.90
79694;DHT22;69165;52.714;13.200;2023-09-30T06:13:00;12.60;99.90
79694;DHT22;69165;52.714;13.200;2023-09-30T06:15:01;12.70;99.90
79694;DHT22;69165;52.714;13.200;2023-09-30T06:17:02;12.70;99.90
79694;DHT22;69165;52.714;13.200;2023-09-30T06:19:04;12.70;99.90
79694;DHT22;69165;52.714;13.200;2023-09-30T06:21:05;12.80;99.90
79694;DHT22;69165;52.714;13.200;2023-09-30T06:23:06;12.80;99.90
79694;DHT22;69165;52.714;13.200;2023-09-30T06:25:09;12.80;99.90
79694;DHT22;69165;52.714;13.200;2023-09-30T06:27:11;12.80;99.90
79694;DHT22;69165;52.714;13.200;2023-09-30T06:29:12;12.80;99.90
79694;DHT22;69165;52.714;13.200;2023-09-30T06:31:13;12.80;99.90
79694;DHT22;69165;52.714;13.200;2023-09-30T06:33:14;12.80;99.90
79694;DHT22;69165;52.714;13.200;2023-09-30T06:35:16;12.80;99.90
79694;DHT22;69165;52.714;13.200;2023-09-30T06:37:17;12.80;99.90
79694;DHT22;69165;52.714;13.200;2023-09-30T06:39:18;12.80;99.90
79694;DHT22;69165;52.714;13.200;2023-09-30T06:41:20;12.80;99.90
79694;DHT22;69165;52.714;13.200;2023-09-30T06:43:21;12.80;99.90
79694;DHT22;69165;52.714;13.200;2023-09-30T06:45:23;12.90;99.90
79694;DHT22;69165;52.714;13.200;2023-09-30T06:47:24;12.90;99.90
79694;DHT22;69165;52.714;13.200;2023-09-30T06:49:26;12.90;99.90
79694;DHT22;69165;52.714;13.200;2023-09-30T06:51:28;13.10;99.90
79694;DHT22;69165;52.714;13.200;2023-09-30T06:53:29;13.10;99.90
79694;DHT22;69165;52.714;13.200;2023-09-30T06:55:30;13.10;99.90
79694;DHT22;69165;52.714;13.200;2023-09-30T06:57:33;13.20;99.90
79694;DHT22;69165;52.714;13.200;2023-09-30T06:59:33;13.30;99.90
79694;DHT22;69165;52.714;13.200;2023-09-30T07:01:35;13.40;99.90
79694;DHT22;69165;52.714;13.200;2023-09-30T07:03:36;13.40;99.90
79694;DHT22;69165;52.714;13.200;2023-09-30T07:05:37;13.40;99.90
79694;DHT22;69165;52.714;13.200;2023-09-30T07:07:39;13.40;99.90
79694;DHT22;69165;52.714;13.200;2023-09-30T07:09:41;13.40;99.90
79694;DHT22;69165;52.714;13.200;2023-09-30T07:11:42;13.40;99.90
79694;DHT22;69165;52.714;13.200;2023-09-30T07:13:44;13.50;99.90
79694;DHT22;69165;52.714;13.200;2023-09-30T07:15:45;13.40;99.90
79694;DHT22;69165;52.714;13.200;2023-09-30T07:17:47;13.50;99.90
79694;DHT22;69165;52.714;13.200;2023-09-30T07:19:48;13.40;99.90
79694;DHT22;69165;52.714;13.200;2023-09-30T07:21:50;13.50;99.90
79694;DHT22;69165;52.714;13.200;2023-09-30T07:23:52;13.50;99.90
79694;DHT22;69165;52.714;13.200;2023-09-30T07:25:53;13.60;99.90
79694;DHT22;69165;52.714;13.200;2023-09-30T07:27:54;13.60;99.90
79694;DHT22;69165;52.714;13.200;2023-09-30T07:29:55;13.60;99.90
79694;DHT22;69165;52.714;13.200;2023-09-30T07:31:57;13.60;99.90
79694;DHT22;69165;52.714;13.200;2023-09-30T07:33:59;13.60;99.90
79694;DHT22;69165;52.714;13.200;2023-09-30T07:36:00;13.60;99.90
79694;DHT22;69165;52.714;13.200;2023-09-30T07:38:01;13.60;99.90
79694;DHT22;69165;52.714;13.200;2023-09-30T07:40:03;13.60;99.90
79694;DHT22;69165;52.714;13.200;2023-09-30T07:42:05;13.60;99.90
79694;DHT22;69165;52.714;13.200;2023-09-30T07:44:07;13.60;99.90
79694;DHT22;69165;52.714;13.200;2023-09-30T07:46:09;13.60;99.90
79694;DHT22;69165;52.714;13.200;2023-09-30T07:48:10;13.60;99.90
79694;DHT22;69165;52.714;13.200;2023-09-30T07:50:12;13.60;99.90
79694;DHT22;69165;52.714;13.200;2023-09-30T07:52:13;13.70;99.90
79694;DHT22;69165;52.714;13.200;2023-09-30T07:54:14;13.70;99.90
79694;DHT22;69165;52.714;13.200;2023-09-30T07:56:16;13.80;99.90
79694;DHT22;69165;52.714;13.200;2023-09-30T07:58:17;13.80;99.90
79694;DHT22;69165;52.714;13.200;2023-09-30T08:00:19;13.80;99.90
79694;DHT22;69165;52.714;13.200;2023-09-30T08:02:20;13.90;99.90
79694;DHT22;69165;52.714;13.200;2023-09-30T08:04:22;13.90;99.90
79694;DHT22;69165;52.714;13.200;2023-09-30T08:06:24;13.90;99.90
79694;DHT22;69165;52.714;13.200;2023-09-30T08:08:25;13.90;99.90
79694;DHT22;69165;52.714;13.200;2023-09-30T08:10:27;14.00;99.90
79694;DHT22;69165;52.714;13.200;2023-09-30T08:12:29;13.90;99.90
79694;DHT22;69165;52.714;13.200;2023-09-30T08:14:30;14.00;99.90
79694;DHT22;69165;52.714;13.200;2023-09-30T08:16:32;14.00;99.90
79694;DHT22;69165;52.714;13.200;2023-09-30T08:18:34;14.10;99.90
79694;DHT22;69165;52.714;13.200;2023-09-30T08:20:35;14.10;99.90
79694;DHT22;69165;52.714;13.200;2023-09-30T08:22:37;14.20;99.90
79694;DHT22;69165;52.714;13.200;2023-09-30T08:24:38;14.20;99.90
79694;DHT22;69165;52.714;13.200;2023-09-30T08:26:41;14.20;99.90
79694;DHT22;69165;52.714;13.200;2023-09-30T08:28:42;14.20;99.90
79694;DHT22;69165;52.714;13.200;2023-09-30T08:30:43;14.20;99.90
79694;DHT22;69165;52.714;13.200;2023-09-30T08:32:45;14.20;99.90
79694;DHT22;69165;52.714;13.200;2023-09-30T08:34:47;14.20;99.90
79694;DHT22;69165;52.714;13.200;2023-09-30T08:36:48;14.20;99.90
79694;DHT22;69165;52.714;13.200;2023-09-30T08:38:50;14.40;99.90
79694;DHT22;69165;52.714;13.200;2023-09-30T08:40:52;14.30;99.90
79694;DHT22;69165;52.714;13.200;2023-09-30T08:42:53;14.50;99.90
79694;DHT22;69165;52.714;13.200;2023-09-30T08:44:54;14.60;99.90
79694;DHT22;69165;52.714;13.200;2023-09-30T08:46:56;14.70;99.90
79694;DHT22;69165;52.714;13.200;2023-09-30T08:48:58;14.60;99.90
79694;DHT22;69165;52.714;13.200;2023-09-30T08:51:00;14.70;99.90
79694;DHT22;69165;52.714;13.200;2023-09-30T08:53:01;14.70;99.90
79694;DHT22;69165;52.714;13.200;2023-09-30T08:55:03;14.70;99.90
79694;DHT22;69165;52.714;13.200;2023-09-30T08:57:05;14.80;99.90
79694;DHT22;69165;52.714;13.200;2023-09-30T08:59:07;14.80;99.90
79694;DHT22;69165;52.714;13.200;2023-09-30T09:01:08;14.90;99.90
79694;DHT22;69165;52.714;13.200;2023-09-30T09:03:09;15.00;99.90
79694;DHT22;69165;52.714;13.200;2023-09-30T09:05:10;15.10;99.90
79694;DHT22;69165;52.714;13.200;2023-09-30T09:07:12;15.30;99.90
79694;DHT22;69165;52.714;13.200;2023-09-30T09:09:14;15.40;99.90
79694;DHT22;69165;52.714;13.200;2023-09-30T09:11:14;15.50;99.90
79694;DHT22;69165;52.714;13.200;2023-09-30T09:13:15;15.60;99.90
79694;DHT22;69165;52.714;13.200;2023-09-30T09:15:20;15.70;99.90
79694;DHT22;69165;52.714;13.200;2023-09-30T09:17:21;15.90;99.90
79694;DHT22;69165;52.714;13.200;2023-09-30T09:19:23;15.90;99.90
79694;DHT22;69165;52.714;13.200;2023-09-30T09:21:24;15.90;99.90
79694;DHT22;69165;52.714;13.200;2023-09-30T09:23:26;16.00;99.90
79694;DHT22;69165;52.714;13.200;2023-09-30T09:25:27;16.00;99.90
79694;DHT22;69165;52.714;13.200;2023-09-30T09:27:28;16.10;99.90
79694;DHT22;69165;52.714;13.200;2023-09-30T09:29:29;16.20;99.90
79694;DHT22;69165;52.714;13.200;2023-09-30T09:31:33;16.40;99.90
79694;DHT22;69165;52.714;13.200;2023-09-30T09:33:34;16.30;99.90
79694;DHT22;69165;52.714;13.200;2023-09-30T09:35:35;16.40;99.90
79694;DHT22;69165;52.714;13.200;2023-09-30T09:37:36;16.40;99.90
79694;DHT22;69165;52.714;13.200;2023-09-30T09:39:37;16.50;99.90
79694;DHT22;69165;52.714;13.200;2023-09-30T09:43:48;16.70;99.90
79694;DHT22;69165;52.714;13.200;2023-09-30T09:45:48;16.80;99.90
79694;DHT22;69165;52.714;13.200;2023-09-30T09:47:51;16.90;99.90
79694;DHT22;69165;52.714;13.200;2023-09-30T09:49:52;17.00;99.90
79694;DHT22;69165;52.714;13.200;2023-09-30T09:51:53;17.00;99.90
79694;DHT22;69165;52.714;13.200;2023-09-30T09:53:54;17.00;99.90
79694;DHT22;69165;52.714;13.200;2023-09-30T09:55:56;17.10;99.90
79694;DHT22;69165;52.714;13.200;2023-09-30T09:57:57;17.20;99.90
79694;DHT22;69165;52.714;13.200;2023-09-30T09:59:58;17.40;99.90
79694;DHT22;69165;52.714;13.200;2023-09-30T10:01:59;17.40;99.90
79694;DHT22;69165;52.714;13.200;2023-09-30T10:04:01;17.50;99.90
79694;DHT22;69165;52.714;13.200;2023-09-30T10:06:02;17.60;99.90
79694;DHT22;69165;52.714;13.200;2023-09-30T10:08:05;17.60;99.90
79694;DHT22;69165;52.714;13.200;2023-09-30T10:10:06;17.70;99.90
79694;DHT22;69165;52.714;13.200;2023-09-30T10:12:06;17.80;99.90
79694;DHT22;69165;52.714;13.200;2023-09-30T10:14:07;17.80;99.90
79694;DHT22;69165;52.714;13.200;2023-09-30T10:16:09;17.80;99.90
79694;DHT22;69165;52.714;13.200;2023-09-30T10:18:10;17.80;99.90
79694;DHT22;69165;52.714;13.200;2023-09-30T10:20:12;17.90;99.90
79694;DHT22;69165;52.714;13.200;2023-09-30T10:22:19;17.90;99.90
79694;DHT22;69165;52.714;13.200;2023-09-30T10:24:30;17.90;99.90
79694;DHT22;69165;52.714;13.200;2023-09-30T10:26:31;18.00;99.90
79694;DHT22;69165;52.714;13.200;2023-09-30T10:28:35;18.00;99.90
79694;DHT22;69165;52.714;13.200;2023-09-30T10:30:36;18.20;99.90
79694;DHT22;69165;52.714;13.200;2023-09-30T10:34:47;18.40;99.90
79694;DHT22;69165;52.714;13.200;2023-09-30T10:36:47;18.30;99.90
79694;DHT22;69165;52.714;13.200;2023-09-30T10:38:49;18.40;99.90
79694;DHT22;69165;52.714;13.200;2023-09-30T10:40:51;18.50;99.90
79694;DHT22;69165;52.714;13.200;2023-09-30T10:42:52;18.50;99.90
79694;DHT22;69165;52.714;13.200;2023-09-30T10:44:53;18.60;99.90
79694;DHT22;69165;52.714;13.200;2023-09-30T10:46:55;18.70;99.90
79694;DHT22;69165;52.714;13.200;2023-09-30T10:48:57;18.80;99.90
79694;DHT22;69165;52.714;13.200;2023-09-30T10:50:58;18.80;99.90
79694;DHT22;69165;52.714;13.200;2023-09-30T10:53:03;18.80;99.90
79694;DHT22;69165;52.714;13.200;2023-09-30T10:55:03;18.70;99.90
79694;DHT22;69165;52.714;13.200;2023-09-30T10:57:04;18.70;99.90
79694;DHT22;69165;52.714;13.200;2023-09-30T10:59:05;18.60;99.90
79694;DHT22;69165;52.714;13.200;2023-09-30T11:01:07;18.40;99.90
79694;DHT22;69165;52.714;13.200;2023-09-30T11:03:10;18.20;99.90
79694;DHT22;69165;52.714;13.200;2023-09-30T11:05:10;18.20;99.90
79694;DHT22;69165;52.714;13.200;2023-09-30T11:07:11;18.20;99.90
79694;DHT22;69165;52.714;13.200;2023-09-30T11:09:15;18.20;99.90
79694;DHT22;69165;52.714;13.200;2023-09-30T11:11:16;18.10;99.90
79694;DHT22;69165;52.714;13.200;2023-09-30T11:13:17;18.10;99.90
79694;DHT22;69165;52.714;13.200;2023-09-30T11:15:19;18.10;99.90
79694;DHT22;69165;52.714;13.200;2023-09-30T11:17:21;18.00;99.90
79694;DHT22;69165;52.714;13.200;2023-09-30T11:19:22;18.10;99.90
79694;DHT22;69165;52.714;13.200;2023-09-30T11:21:24;18.10;99.90
79694;DHT22;69165;52.714;13.200;2023-09-30T11:23:26;18.10;99.90
79694;DHT22;69165;52.714;13.200;2023-09-30T11:25:27;18.10;99.90
79694;DHT22;69165;52.714;13.200;2023-09-30T11:27:28;18.20;99.90
79694;DHT22;69165;52.714;13.200;2023-09-30T11:29:29;18.30;99.90
79694;DHT22;69165;52.714;13.200;2023-09-30T11:31:32;18.50;99.90
79694;DHT22;69165;52.714;13.200;2023-09-30T11:33:34;18.60;99.90
79694;DHT22;69165;52.714;13.200;2023-09-30T11:35:35;18.60;99.90
79694;DHT22;69165;52.714;13.200;2023-09-30T11:37:36;18.70;99.90
79694;DHT22;69165;52.714;13.200;2023-09-30T11:39:37;18.80;99.90
79694;DHT22;69165;52.714;13.200;2023-09-30T11:41:39;18.90;99.90
79694;DHT22;69165;52.714;13.200;2023-09-30T11:43:57;19.10;99.90
79694;DHT22;69165;52.714;13.200;2023-09-30T11:45:41;19.30;99.90
79694;DHT22;69165;52.714;13.200;2023-09-30T11:47:43;19.40;99.90
79694;DHT22;69165;52.714;13.200;2023-09-30T11:49:45;19.40;99.90
79694;DHT22;69165;52.714;13.200;2023-09-30T11:51:47;19.50;99.90
79694;DHT22;69165;52.714;13.200;2023-09-30T11:53:48;19.50;99.90
79694;DHT22;69165;52.714;13.200;2023-09-30T11:55:49;19.50;99.90
79694;DHT22;69165;52.714;13.200;2023-09-30T11:57:50;19.60;99.90
79694;DHT22;69165;52.714;13.200;2023-09-30T11:59:52;19.50;99.90
79694;DHT22;69165;52.714;13.200;2023-09-30T12:01:54;19.40;99.90
79694;DHT22;69165;52.714;13.200;2023-09-30T12:03:55;19.30;99.90
79694;DHT22;69165;52.714;13.200;2023-09-30T12:05:57;19.30;99.90
79694;DHT22;69165;52.714;13.200;2023-09-30T12:07:57;19.10;99.90
79694;DHT22;69165;52.714;13.200;2023-09-30T12:09:59;19.10;99.90
79694;DHT22;69165;52.714;13.200;2023-09-30T12:12:01;19.00;99.90
79694;DHT22;69165;52.714;13.200;2023-09-30T12:14:02;19.00;99.90
79694;DHT22;69165;52.714;13.200;2023-09-30T12:16:04;19.00;99.90
79694;DHT22;69165;52.714;13.200;2023-09-30T12:18:05;18.90;99.90
79694;DHT22;69165;52.714;13.200;2023-09-30T12:20:07;18.90;99.90
79694;DHT22;69165;52.714;13.200;2023-09-30T12:22:08;18.80;99.90
79694;DHT22;69165;52.714;13.200;2023-09-30T12:24:10;18.60;99.90
79694;DHT22;69165;52.714;13.200;2023-09-30T12:26:12;18.60;99.90
79694;DHT22;69165;52.714;13.200;2023-09-30T12:28:14;18.60;99.90
79694;DHT22;69165;52.714;13.200;2023-09-30T12:30:15;18.60;99.90
79694;DHT22;69165;52.714;13.200;2023-09-30T12:32:16;18.70;99.90
79694;DHT22;69165;52.714;13.200;2023-09-30T12:34:17;18.80;99.90
79694;DHT22;69165;52.714;13.200;2023-09-30T12:36:19;18.80;99.90
79694;DHT22;69165;52.714;13.200;2023-09-30T12:38:20;18.80;99.90
79694;DHT22;69165;52.714;13.200;2023-09-30T12:40:21;18.80;99.90
79694;DHT22;69165;52.714;13.200;2023-09-30T12:42:22;18.70;99.90
79694;DHT22;69165;52.714;13.200;2023-09-30T12:44:24;18.70;99.90
79694;DHT22;69165;52.714;13.200;2023-09-30T12:46:25;18.60;99.90
79694;DHT22;69165;52.714;13.200;2023-09-30T12:48:26;18.50;99.90
79694;DHT22;69165;52.714;13.200;2023-09-30T12:50:28;18.50;99.90
79694;DHT22;69165;52.714;13.200;2023-09-30T12:52:29;18.50;99.90
79694;DHT22;69165;52.714;13.200;2023-09-30T12:54:30;18.50;99.90
79694;DHT22;69165;52.714;13.200;2023-09-30T12:56:32;18.50;99.90
79694;DHT22;69165;52.714;13.200;2023-09-30T12:58:33;18.50;99.90
79694;DHT22;69165;52.714;13.200;2023-09-30T13:00:35;18.60;99.90
79694;DHT22;69165;52.714;13.200;2023-09-30T13:02:36;18.60;99.90
79694;DHT22;69165;52.714;13.200;2023-09-30T13:04:37;18.70;99.90
79694;DHT22;69165;52.714;13.200;2023-09-30T13:06:38;18.90;99.90
79694;DHT22;69165;52.714;13.200;2023-09-30T13:08:40;19.00;99.90
79694;DHT22;69165;52.714;13.200;2023-09-30T13:10:41;19.10;99.90
79694;DHT22;69165;52.714;13.200;2023-09-30T13:12:42;19.10;99.90
79694;DHT22;69165;52.714;13.200;2023-09-30T13:14:43;19.30;99.90
79694;DHT22;69165;52.714;13.200;2023-09-30T13:16:45;19.40;99.90
79694;DHT22;69165;52.714;13.200;2023-09-30T13:18:46;19.30;99.90
79694;DHT22;69165;52.714;13.200;2023-09-30T13:20:47;19.30;99.90
79694;DHT22;69165;52.714;13.200;2023-09-30T13:22:49;19.30;99.90
79694;DHT22;69165;52.714;13.200;2023-09-30T13:24:51;19.20;99.90
79694;DHT22;69165;52.714;13.200;2023-09-30T13:26:52;19.20;99.90
79694;DHT22;69165;52.714;13.200;2023-09-30T13:28:53;19.10;99.90
79694;DHT22;69165;52.714;13.200;2023-09-30T13:30:55;19.00;99.90
79694;DHT22;69165;52.714;13.200;2023-09-30T13:32:56;19.00;99.90
79694;DHT22;69165;52.714;13.200;2023-09-30T13:34:58;18.90;99.90
79694;DHT22;69165;52.714;13.200;2023-09-30T13:36:59;18.90;99.90
79694;DHT22;69165;52.714;13.200;2023-09-30T13:39:01;19.00;99.90
79694;DHT22;69165;52.714;13.200;2023-09-30T13:41:02;19.00;99.90
79694;DHT22;69165;52.714;13.200;2023-09-30T13:43:04;19.00;99.90
79694;DHT22;69165;52.714;13.200;2023-09-30T13:45:06;19.00;99.90
79694;DHT22;69165;52.714;13.200;2023-09-30T13:47:07;19.00;99.90
79694;DHT22;69165;52.714;13.200;2023-09-30T13:49:08;19.00;99.90
79694;DHT22;69165;52.714;13.200;2023-09-30T13:51:10;19.10;99.90
79694;DHT22;69165;52.714;13.200;2023-09-30T13:53:12;19.10;99.90
79694;DHT22;69165;52.714;13.200;2023-09-30T13:55:14;19.20;99.90
79694;DHT22;69165;52.714;13.200;2023-09-30T13:57:16;19.20;99.90
79694;DHT22;69165;52.714;13.200;2023-09-30T13:59:17;19.20;99.90
79694;DHT22;69165;52.714;13.200;2023-09-30T14:01:19;19.30;99.90
79694;DHT22;69165;52.714;13.200;2023-09-30T14:03:21;19.30;99.90
79694;DHT22;69165;52.714;13.200;2023-09-30T14:05:22;19.30;99.90
79694;DHT22;69165;52.714;13.200;2023-09-30T14:07:23;19.30;99.90
79694;DHT22;69165;52.714;13.200;2023-09-30T14:09:25;19.20;99.90
79694;DHT22;69165;52.714;13.200;2023-09-30T14:11:26;19.20;99.90
79694;DHT22;69165;52.714;13.200;2023-09-30T14:13:27;19.20;99.90
79694;DHT22;69165;52.714;13.200;2023-09-30T14:15:29;19.20;99.90
79694;DHT22;69165;52.714;13.200;2023-09-30T14:17:30;19.20;99.90
79694;DHT22;69165;52.714;13.200;2023-09-30T14:19:31;19.20;99.90
79694;DHT22;69165;52.714;13.200;2023-09-30T14:21:32;19.20;99.90
79694;DHT22;69165;52.714;13.200;2023-09-30T14:23:33;19.20;99.90
79694;DHT22;69165;52.714;13.200;2023-09-30T14:25:35;19.20;99.90
79694;DHT22;69165;52.714;13.200;2023-09-30T14:27:36;19.10;99.90
79694;DHT22;69165;52.714;13.200;2023-09-30T14:29:37;19.00;99.90
79694;DHT22;69165;52.714;13.200;2023-09-30T14:31:39;18.80;99.90
79694;DHT22;69165;52.714;13.200;2023-09-30T14:33:40;18.80;99.90
79694;DHT22;69165;52.714;13.200;2023-09-30T14:35:42;18.80;99.90
79694;DHT22;69165;52.714;13.200;2023-09-30T14:37:44;18.70;99.90
79694;DHT22;69165;52.714;13.200;2023-09-30T14:39:45;18.60;99.90
79694;DHT22;69165;52.714;13.200;2023-09-30T14:41:47;18.60;99.90
79694;DHT22;69165;52.714;13.200;2023-09-30T14:43:49;18.60;99.90
79694;DHT22;69165;52.714;13.200;2023-09-30T14:45:50;18.60;99.90
79694;DHT22;69165;52.714;13.200;2023-09-30T14:47:52;18.60;99.90
79694;DHT22;69165;52.714;13.200;2023-09-30T14:49:53;18.60;99.90
79694;DHT22;69165;52.714;13.200;2023-09-30T14:51:56;18.60;99.90
79694;DHT22;69165;52.714;13.200;2023-09-30T14:53:56;18.50;99.90
79694;DHT22;69165;52.714;13.200;2023-09-30T14:55:57;18.50;99.90
79694;DHT22;69165;52.714;13.200;2023-09-30T14:57:58;18.50;99.90
79694;DHT22;69165;52.714;13.200;2023-09-30T15:00:00;18.60;99.90
79694;DHT22;69165;52.714;13.200;2023-09-30T15:02:02;18.60;99.90
79694;DHT22;69165;52.714;13.200;2023-09-30T15:04:03;18.60;99.90
79694;DHT22;69165;52.714;13.200;2023-09-30T15:06:05;18.60;99.90
79694;DHT22;69165;52.714;13.200;2023-09-30T15:08:05;18.60;99.90
79694;DHT22;69165;52.714;13.200;2023-09-30T15:10:07;18.50;99.90
79694;DHT22;69165;52.714;13.200;2023-09-30T15:12:08;18.50;99.90
79694;DHT22;69165;52.714;13.200;2023-09-30T15:14:10;18.50;99.90
79694;DHT22;69165;52.714;13.200;2023-09-30T15:16:14;18.50;99.90
79694;DHT22;69165;52.714;13.200;2023-09-30T15:18:15;18.60;99.90
79694;DHT22;69165;52.714;13.200;2023-09-30T15:20:17;18.50;99.90
79694;DHT22;69165;52.714;13.200;2023-09-30T15:22:19;18.60;99.90
79694;DHT22;69165;52.714;13.200;2023-09-30T15:24:20;18.60;99.90
79694;DHT22;69165;52.714;13.200;2023-09-30T15:26:22;18.60;99.90
79694;DHT22;69165;52.714;13.200;2023-09-30T15:28:23;18.60;99.90
79694;DHT22;69165;52.714;13.200;2023-09-30T15:30:25;18.60;99.90
79694;DHT22;69165;52.714;13.200;2023-09-30T15:32:26;18.60;99.90
79694;DHT22;69165;52.714;13.200;2023-09-30T15:34:28;18.50;99.90
79694;DHT22;69165;52.714;13.200;2023-09-30T15:36:29;18.50;99.90
79694;DHT22;69165;52.714;13.200;2023-09-30T15:38:30;18.50;99.90
79694;DHT22;69165;52.714;13.200;2023-09-30T15:40:34;18.40;99.90
79694;DHT22;69165;52.714;13.200;2023-09-30T15:42:34;18.40;99.90
79694;DHT22;69165;52.714;13.200;2023-09-30T15:44:36;18.30;99.90
79694;DHT22;69165;52.714;13.200;2023-09-30T15:46:38;18.40;99.90
79694;DHT22;69165;52.714;13.200;2023-09-30T15:48:39;18.30;99.90
79694;DHT22;69165;52.714;13.200;2023-09-30T15:50:41;18.30;99.90
79694;DHT22;69165;52.714;13.200;2023-09-30T15:52:42;18.20;99.90
79694;DHT22;69165;52.714;13.200;2023-09-30T15:54:43;18.20;99.90
79694;DHT22;69165;52.714;13.200;2023-09-30T15:56:45;18.10;99.90
79694;DHT22;69165;52.714;13.200;2023-09-30T15:58:46;18.10;99.90
79694;DHT22;69165;52.714;13.200;2023-09-30T16:00:47;18.10;99.90
79694;DHT22;69165;52.714;13.200;2023-09-30T16:02:48;18.00;99.90
79694;DHT22;69165;52.714;13.200;2023-09-30T16:04:50;17.80;99.90
79694;DHT22;69165;52.714;13.200;2023-09-30T16:06:52;17.80;99.90
79694;DHT22;69165;52.714;13.200;2023-09-30T16:08:53;17.70;99.90
79694;DHT22;69165;52.714;13.200;2023-09-30T16:10:54;17.70;99.90
79694;DHT22;69165;52.714;13.200;2023-09-30T16:12:55;17.60;99.90
79694;DHT22;69165;52.714;13.200;2023-09-30T16:14:57;17.60;99.90
79694;DHT22;69165;52.714;13.200;2023-09-30T16:16:58;17.60;99.90
79694;DHT22;69165;52.714;13.200;2023-09-30T16:19:00;17.50;99.90
79694;DHT22;69165;52.714;13.200;2023-09-30T16:21:01;17.50;99.90
79694;DHT22;69165;52.714;13.200;2023-09-30T16:23:02;17.40;99.90
79694;DHT22;69165;52.714;13.200;2023-09-30T16:25:04;17.30;99.90
79694;DHT22;69165;52.714;13.200;2023-09-30T16:27:05;17.20;99.90
79694;DHT22;69165;52.714;13.200;2023-09-30T16:29:07;17.00;99.90
79694;DHT22;69165;52.714;13.200;2023-09-30T16:31:09;17.10;99.90
79694;DHT22;69165;52.714;13.200;2023-09-30T16:33:10;17.00;99.90
79694;DHT22;69165;52.714;13.200;2023-09-30T16:35:11;16.90;99.90
79694;DHT22;69165;52.714;13.200;2023-09-30T16:37:13;16.90;99.90
79694;DHT22;69165;52.714;13.200;2023-09-30T16:39:15;16.80;99.90
79694;DHT22;69165;52.714;13.200;2023-09-30T16:41:16;16.80;99.90
79694;DHT22;69165;52.714;13.200;2023-09-30T16:43:18;16.70;99.90
79694;DHT22;69165;52.714;13.200;2023-09-30T16:45:19;16.70;99.90
79694;DHT22;69165;52.714;13.200;2023-09-30T16:47:20;16.60;99.90
79694;DHT22;69165;52.714;13.200;2023-09-30T16:49:22;16.60;99.90
79694;DHT22;69165;52.714;13.200;2023-09-30T16:51:23;16.50;99.90
79694;DHT22;69165;52.714;13.200;2023-09-30T16:53:24;16.40;99.90
79694;DHT22;69165;52.714;13.200;2023-09-30T16:55:26;16.40;99.90
79694;DHT22;69165;52.714;13.200;2023-09-30T16:57:27;16.20;99.90
79694;DHT22;69165;52.714;13.200;2023-09-30T16:59:29;16.20;99.90
79694;DHT22;69165;52.714;13.200;2023-09-30T17:01:31;15.90;99.90
79694;DHT22;69165;52.714;13.200;2023-09-30T17:03:32;15.90;99.90
79694;DHT22;69165;52.714;13.200;2023-09-30T17:05:34;15.80;99.90
79694;DHT22;69165;52.714;13.200;2023-09-30T17:07:35;15.80;99.90
79694;DHT22;69165;52.714;13.200;2023-09-30T17:09:36;15.70;99.90
79694;DHT22;69165;52.714;13.200;2023-09-30T17:11:38;15.60;99.90
79694;DHT22;69165;52.714;13.200;2023-09-30T17:13:39;15.50;99.90
79694;DHT22;69165;52.714;13.200;2023-09-30T17:15:41;15.50;99.90
79694;DHT22;69165;52.714;13.200;2023-09-30T17:17:43;15.30;99.90
79694;DHT22;69165;52.714;13.200;2023-09-30T17:19:44;15.30;99.90
79694;DHT22;69165;52.714;13.200;2023-09-30T17:21:46;15.20;99.90
79694;DHT22;69165;52.714;13.200;2023-09-30T17:23:48;15.10;99.90
79694;DHT22;69165;52.714;13.200;2023-09-30T17:25:49;15.10;99.90
79694;DHT22;69165;52.714;13.200;2023-09-30T17:27:50;15.00;99.90
79694;DHT22;69165;52.714;13.200;2023-09-30T17:29:51;15.00;99.90
79694;DHT22;69165;52.714;13.200;2023-09-30T17:31:54;14.70;99.90
79694;DHT22;69165;52.714;13.200;2023-09-30T17:33:55;14.70;99.90
79694;DHT22;69165;52.714;13.200;2023-09-30T17:35:59;14.60;99.90
79694;DHT22;69165;52.714;13.200;2023-09-30T17:37:59;14.60;99.90
79694;DHT22;69165;52.714;13.200;2023-09-30T17:40:01;14.50;99.90